Forside
METAR-TAF:

METAR-TAF

Lufthavne :

Lusaka, Zambia

Breddekreds: 15-19-51S, længdekreds: 028-27-09E, højde: 1152 m

Aktuelle vejr

Denne rapport blev lavet for 1 time og 9 minutter siden, kl. 17:00 UTC
Vind 9 kt fra øst
Temperatur 22°C
Fugtighed 33%
Tryk 1024 hPa
Sigt 10 km eller mere
ingen skyer under 1500m og ingen cumulonimbus

METAR: FLKK 141700Z 10009KT CAVOK 22/05 Q1024

Tid: 20:09 (18:09 UTC)


TAF: fraværende

Vejrobservationer og prognoser fra mere end 4000 lufthavne (METAR og TAF).

De gule og røde prikker repræsenterer de meteorologiske stationer.

Flyt musen over at se navnet på stationen.

Så klik over at se vejr observationer og prognoser.

At skifte det kort: Klik på de grønne knapper med et sort kors for at zoome ind; på den grønne knap med en bindestreg for at zoome ud; eller på de grønne pile for tilstødende kort.


METAR-TAF: